TimeEDT,TemperatureF,Dew PointF,Humidity,Sea Level PressureIn,VisibilityMPH,Wind Direction,Wind SpeedMPH,Gust SpeedMPH,PrecipitationIn,Events,Conditions,WindDirDegrees,DateUTC
12:53 AM,50.0,46.9,89,30.08,10.0,Calm,Calm,-,N/A,,Clear,0,2013-07-25 04:53:00
1:53 AM,48.0,46.0,93,30.09,10.0,Calm,Calm,-,N/A,,Clear,0,2013-07-25 05:53:00
2:53 AM,46.9,45.0,93,30.10,10.0,Calm,Calm,-,N/A,,Clear,0,2013-07-25 06:53:00
3:53 AM,46.0,43.0,89,30.11,10.0,Calm,Calm,-,N/A,,Clear,0,2013-07-25 07:53:00
4:53 AM,45.0,44.1,97,30.11,10.0,Calm,Calm,-,N/A,,Clear,0,2013-07-25 08:53:00
5:26 AM,46.4,44.6,93,30.11,10.0,Calm,Calm,-,N/A,,Scattered Clouds,0,2013-07-25 09:26:00
5:35 AM,44.6,42.8,93,30.11,1.2,Calm,Calm,-,N/A,,Scattered Clouds,0,2013-07-25 09:35:00
5:37 AM,46.4,42.8,87,30.12,0.8,Calm,Calm,-,N/A,,Mist,0,2013-07-25 09:37:00
5:48 AM,44.6,42.8,93,30.12,1.5,Calm,Calm,-,N/A,,Scattered Clouds,0,2013-07-25 09:48:00
5:50 AM,44.6,42.8,93,30.12,5.0,Calm,Calm,-,N/A,,Partly Cloudy,0,2013-07-25 09:50:00
5:53 AM,45.0,43.0,93,30.13,10.0,Calm,Calm,-,N/A,,Partly Cloudy,0,2013-07-25 09:53:00
6:53 AM,48.9,46.9,93,30.14,10.0,Calm,Calm,-,N/A,,Clear,0,2013-07-25 10:53:00
7:53 AM,54.0,48.9,83,30.16,10.0,Calm,Calm,-,N/A,,Clear,0,2013-07-25 11:53:00
8:53 AM,59.0,48.0,67,30.17,10.0,ENE,3.5,-,N/A,,Clear,60,2013-07-25 12:53:00
9:53 AM,63.0,46.9,56,30.18,10.0,East,8.1,-,N/A,,Clear,90,2013-07-25 13:53:00
10:53 AM,64.9,46.9,52,30.19,10.0,ENE,8.1,-,N/A,,Clear,70,2013-07-25 14:53:00
11:53 AM,66.0,48.0,52,30.18,10.0,NE,11.5,-,N/A,,Clear,40,2013-07-25 15:53:00
12:53 PM,66.9,48.9,52,30.17,10.0,NE,8.1,-,N/A,,Clear,50,2013-07-25 16:53:00
1:53 PM,68.0,48.9,50,30.16,10.0,NE,5.8,-,N/A,,Clear,40,2013-07-25 17:53:00
2:53 PM,70.0,50.0,49,30.15,10.0,ENE,8.1,-,N/A,,Clear,60,2013-07-25 18:53:00
3:53 PM,71.1,46.0,41,30.14,10.0,East,9.2,-,N/A,,Clear,80,2013-07-25 19:53:00
4:53 PM,71.1,46.0,41,30.14,10.0,Variable,5.8,-,N/A,,Clear,0,2013-07-25 20:53:00
5:53 PM,71.1,48.9,45,30.13,10.0,ENE,5.8,-,N/A,,Clear,60,2013-07-25 21:53:00
6:53 PM,69.1,48.9,49,30.14,10.0,East,4.6,-,N/A,,Clear,90,2013-07-25 22:53:00
7:53 PM,66.0,48.0,52,30.14,10.0,ENE,3.5,-,N/A,,Clear,60,2013-07-25 23:53:00
8:53 PM,59.0,51.1,75,30.14,10.0,Calm,Calm,-,N/A,,Clear,0,2013-07-26 00:53:00
9:53 PM,55.0,50.0,83,30.15,10.0,Calm,Calm,-,N/A,,Clear,0,2013-07-26 01:53:00
10:53 PM,52.0,48.9,89,30.14,10.0,Calm,Calm,-,N/A,,Clear,0,2013-07-26 02:53:00
11:53 PM,51.1,48.9,92,30.14,10.0,Calm,Calm,-,N/A,,Clear,0,2013-07-26 03:53:00